sensor_id;sensor_type;location;lat;lon;timestamp;P1;durP1;ratioP1;P2;durP2;ratioP2
55328;SDS011;41205;44.264;19.884;2024-01-15T00:01:54;50.28;;;33.45;;
55328;SDS011;41205;44.264;19.884;2024-01-15T00:04:21;79.25;;;50.28;;
55328;SDS011;41205;44.264;19.884;2024-01-15T00:06:47;48.65;;;32.28;;
55328;SDS011;41205;44.264;19.884;2024-01-15T00:09:12;73.15;;;41.35;;
55328;SDS011;41205;44.264;19.884;2024-01-15T00:11:38;65.18;;;38.95;;
55328;SDS011;41205;44.264;19.884;2024-01-15T00:14:04;119.28;;;66.95;;
55328;SDS011;41205;44.264;19.884;2024-01-15T00:16:30;146.52;;;86.43;;
55328;SDS011;41205;44.264;19.884;2024-01-15T00:18:55;126.22;;;72.07;;
55328;SDS011;41205;44.264;19.884;2024-01-15T00:21:21;111.80;;;64.35;;
55328;SDS011;41205;44.264;19.884;2024-01-15T00:23:48;71.55;;;39.92;;
55328;SDS011;41205;44.264;19.884;2024-01-15T00:26:14;104.50;;;55.45;;
55328;SDS011;41205;44.264;19.884;2024-01-15T00:28:40;61.85;;;32.45;;
55328;SDS011;41205;44.264;19.884;2024-01-15T00:31:06;34.55;;;20.17;;
55328;SDS011;41205;44.264;19.884;2024-01-15T00:33:31;75.38;;;43.33;;
55328;SDS011;41205;44.264;19.884;2024-01-15T00:35:57;42.78;;;22.50;;
55328;SDS011;41205;44.264;19.884;2024-01-15T00:38:23;103.60;;;53.67;;
55328;SDS011;41205;44.264;19.884;2024-01-15T00:40:49;46.47;;;26.77;;
55328;SDS011;41205;44.264;19.884;2024-01-15T00:43:15;72.45;;;37.33;;
55328;SDS011;41205;44.264;19.884;2024-01-15T00:45:43;56.55;;;33.33;;
55328;SDS011;41205;44.264;19.884;2024-01-15T00:48:09;58.20;;;34.15;;
55328;SDS011;41205;44.264;19.884;2024-01-15T00:50:34;169.27;;;78.50;;
55328;SDS011;41205;44.264;19.884;2024-01-15T00:53:00;34.63;;;22.05;;
55328;SDS011;41205;44.264;19.884;2024-01-15T00:55:27;33.60;;;20.58;;
55328;SDS011;41205;44.264;19.884;2024-01-15T00:57:53;18.40;;;11.63;;
55328;SDS011;41205;44.264;19.884;2024-01-15T01:00:19;25.65;;;14.13;;
55328;SDS011;41205;44.264;19.884;2024-01-15T01:02:45;180.30;;;98.70;;
55328;SDS011;41205;44.264;19.884;2024-01-15T01:05:11;233.63;;;127.00;;
55328;SDS011;41205;44.264;19.884;2024-01-15T01:07:36;170.52;;;96.70;;
55328;SDS011;41205;44.264;19.884;2024-01-15T01:10:02;94.15;;;57.03;;
55328;SDS011;41205;44.264;19.884;2024-01-15T01:12:28;44.35;;;27.50;;
55328;SDS011;41205;44.264;19.884;2024-01-15T01:14:55;73.22;;;41.13;;
55328;SDS011;41205;44.264;19.884;2024-01-15T01:17:21;57.85;;;34.72;;
55328;SDS011;41205;44.264;19.884;2024-01-15T01:19:47;35.55;;;21.55;;
55328;SDS011;41205;44.264;19.884;2024-01-15T01:22:14;26.45;;;18.20;;
55328;SDS011;41205;44.264;19.884;2024-01-15T01:24:40;23.48;;;14.02;;
55328;SDS011;41205;44.264;19.884;2024-01-15T01:27:06;22.48;;;15.50;;
55328;SDS011;41205;44.264;19.884;2024-01-15T01:29:32;73.65;;;40.78;;
55328;SDS011;41205;44.264;19.884;2024-01-15T01:31:57;223.52;;;127.28;;
55328;SDS011;41205;44.264;19.884;2024-01-15T01:34:23;298.33;;;173.35;;
55328;SDS011;41205;44.264;19.884;2024-01-15T01:36:49;272.08;;;151.10;;
55328;SDS011;41205;44.264;19.884;2024-01-15T01:39:15;146.82;;;88.80;;
55328;SDS011;41205;44.264;19.884;2024-01-15T01:41:41;132.43;;;73.97;;
55328;SDS011;41205;44.264;19.884;2024-01-15T01:44:07;117.55;;;69.55;;
55328;SDS011;41205;44.264;19.884;2024-01-15T01:46:32;55.10;;;32.22;;
55328;SDS011;41205;44.264;19.884;2024-01-15T01:49:04;43.78;;;26.73;;
55328;SDS011;41205;44.264;19.884;2024-01-15T01:51:31;38.72;;;21.42;;
55328;SDS011;41205;44.264;19.884;2024-01-15T01:53:58;32.83;;;20.80;;
55328;SDS011;41205;44.264;19.884;2024-01-15T01:56:24;27.88;;;18.40;;
55328;SDS011;41205;44.264;19.884;2024-01-15T01:58:50;16.02;;;12.15;;
55328;SDS011;41205;44.264;19.884;2024-01-15T02:01:16;13.38;;;8.63;;
55328;SDS011;41205;44.264;19.884;2024-01-15T02:03:43;24.05;;;14.18;;
55328;SDS011;41205;44.264;19.884;2024-01-15T02:06:09;56.22;;;32.72;;
55328;SDS011;41205;44.264;19.884;2024-01-15T02:08:35;152.93;;;80.82;;
55328;SDS011;41205;44.264;19.884;2024-01-15T02:11:01;69.93;;;41.25;;
55328;SDS011;41205;44.264;19.884;2024-01-15T02:13:27;48.25;;;28.77;;
55328;SDS011;41205;44.264;19.884;2024-01-15T02:15:53;69.43;;;39.35;;
55328;SDS011;41205;44.264;19.884;2024-01-15T02:18:18;60.42;;;34.13;;
55328;SDS011;41205;44.264;19.884;2024-01-15T02:20:45;81.43;;;45.33;;
55328;SDS011;41205;44.264;19.884;2024-01-15T02:23:12;141.38;;;84.53;;
55328;SDS011;41205;44.264;19.884;2024-01-15T02:25:43;244.13;;;142.82;;
55328;SDS011;41205;44.264;19.884;2024-01-15T02:28:11;224.23;;;132.27;;
55328;SDS011;41205;44.264;19.884;2024-01-15T02:30:39;213.63;;;130.35;;
55328;SDS011;41205;44.264;19.884;2024-01-15T02:33:06;255.27;;;154.30;;
55328;SDS011;41205;44.264;19.884;2024-01-15T02:35:32;207.70;;;125.90;;
55328;SDS011;41205;44.264;19.884;2024-01-15T02:38:01;181.65;;;116.00;;
55328;SDS011;41205;44.264;19.884;2024-01-15T02:40:27;194.98;;;115.35;;
55328;SDS011;41205;44.264;19.884;2024-01-15T02:42:53;163.60;;;97.25;;
55328;SDS011;41205;44.264;19.884;2024-01-15T02:45:19;123.38;;;70.95;;
55328;SDS011;41205;44.264;19.884;2024-01-15T02:47:45;76.90;;;44.42;;
55328;SDS011;41205;44.264;19.884;2024-01-15T02:50:11;56.13;;;30.13;;
55328;SDS011;41205;44.264;19.884;2024-01-15T02:52:37;51.65;;;30.90;;
55328;SDS011;41205;44.264;19.884;2024-01-15T02:55:03;52.30;;;30.10;;
55328;SDS011;41205;44.264;19.884;2024-01-15T02:57:29;40.88;;;23.75;;
55328;SDS011;41205;44.264;19.884;2024-01-15T02:59:55;49.97;;;27.95;;
55328;SDS011;41205;44.264;19.884;2024-01-15T03:02:21;58.63;;;32.65;;
55328;SDS011;41205;44.264;19.884;2024-01-15T03:04:46;45.95;;;26.40;;
55328;SDS011;41205;44.264;19.884;2024-01-15T03:07:12;46.03;;;30.35;;
55328;SDS011;41205;44.264;19.884;2024-01-15T03:09:38;25.27;;;13.65;;
55328;SDS011;41205;44.264;19.884;2024-01-15T03:12:04;27.25;;;16.92;;
55328;SDS011;41205;44.264;19.884;2024-01-15T03:14:30;37.80;;;23.98;;
55328;SDS011;41205;44.264;19.884;2024-01-15T03:16:56;19.17;;;12.68;;
55328;SDS011;41205;44.264;19.884;2024-01-15T03:19:22;27.48;;;15.43;;
55328;SDS011;41205;44.264;19.884;2024-01-15T03:21:47;32.67;;;18.83;;
55328;SDS011;41205;44.264;19.884;2024-01-15T03:24:13;35.25;;;19.70;;
55328;SDS011;41205;44.264;19.884;2024-01-15T03:26:39;78.95;;;46.72;;
55328;SDS011;41205;44.264;19.884;2024-01-15T03:29:05;53.92;;;33.35;;
55328;SDS011;41205;44.264;19.884;2024-01-15T03:31:31;68.43;;;39.80;;
55328;SDS011;41205;44.264;19.884;2024-01-15T03:33:57;67.00;;;41.22;;
55328;SDS011;41205;44.264;19.884;2024-01-15T03:36:22;88.13;;;47.17;;
55328;SDS011;41205;44.264;19.884;2024-01-15T03:38:48;73.45;;;38.42;;
55328;SDS011;41205;44.264;19.884;2024-01-15T03:41:14;67.65;;;38.33;;
55328;SDS011;41205;44.264;19.884;2024-01-15T03:43:40;85.78;;;45.20;;
55328;SDS011;41205;44.264;19.884;2024-01-15T03:46:05;129.32;;;66.93;;
55328;SDS011;41205;44.264;19.884;2024-01-15T03:48:32;88.32;;;49.60;;
55328;SDS011;41205;44.264;19.884;2024-01-15T03:50:57;56.30;;;30.98;;
55328;SDS011;41205;44.264;19.884;2024-01-15T03:53:23;27.67;;;16.52;;
55328;SDS011;41205;44.264;19.884;2024-01-15T03:55:49;39.53;;;21.02;;
55328;SDS011;41205;44.264;19.884;2024-01-15T03:58:15;32.92;;;16.67;;
55328;SDS011;41205;44.264;19.884;2024-01-15T04:00:42;58.85;;;34.88;;
55328;SDS011;41205;44.264;19.884;2024-01-15T04:03:08;106.32;;;64.28;;
55328;SDS011;41205;44.264;19.884;2024-01-15T04:05:33;124.28;;;68.75;;
55328;SDS011;41205;44.264;19.884;2024-01-15T04:07:59;144.32;;;79.90;;
55328;SDS011;41205;44.264;19.884;2024-01-15T04:10:25;208.23;;;110.22;;
55328;SDS011;41205;44.264;19.884;2024-01-15T04:12:51;178.77;;;100.28;;
55328;SDS011;41205;44.264;19.884;2024-01-15T04:15:17;132.38;;;76.68;;
55328;SDS011;41205;44.264;19.884;2024-01-15T04:17:43;143.80;;;73.55;;
55328;SDS011;41205;44.264;19.884;2024-01-15T04:20:09;217.02;;;135.48;;
55328;SDS011;41205;44.264;19.884;2024-01-15T04:22:35;97.93;;;54.05;;
55328;SDS011;41205;44.264;19.884;2024-01-15T04:25:01;35.30;;;18.38;;
55328;SDS011;41205;44.264;19.884;2024-01-15T04:27:27;78.80;;;44.50;;
55328;SDS011;41205;44.264;19.884;2024-01-15T04:29:53;118.30;;;66.95;;
55328;SDS011;41205;44.264;19.884;2024-01-15T04:32:19;94.82;;;54.88;;
55328;SDS011;41205;44.264;19.884;2024-01-15T04:34:45;93.75;;;55.88;;
55328;SDS011;41205;44.264;19.884;2024-01-15T04:37:11;59.85;;;33.40;;
55328;SDS011;41205;44.264;19.884;2024-01-15T04:39:38;43.97;;;27.10;;
55328;SDS011;41205;44.264;19.884;2024-01-15T04:42:04;58.20;;;33.50;;
55328;SDS011;41205;44.264;19.884;2024-01-15T04:44:30;48.63;;;29.38;;
55328;SDS011;41205;44.264;19.884;2024-01-15T04:46:55;45.85;;;28.33;;
55328;SDS011;41205;44.264;19.884;2024-01-15T04:49:21;40.70;;;22.70;;
55328;SDS011;41205;44.264;19.884;2024-01-15T04:51:47;53.95;;;35.25;;
55328;SDS011;41205;44.264;19.884;2024-01-15T04:54:13;209.35;;;117.55;;
55328;SDS011;41205;44.264;19.884;2024-01-15T04:56:42;159.02;;;87.00;;
55328;SDS011;41205;44.264;19.884;2024-01-15T04:59:09;85.32;;;48.80;;
55328;SDS011;41205;44.264;19.884;2024-01-15T05:01:35;39.83;;;23.45;;
55328;SDS011;41205;44.264;19.884;2024-01-15T05:04:01;33.97;;;19.65;;
55328;SDS011;41205;44.264;19.884;2024-01-15T05:06:27;21.80;;;12.65;;
55328;SDS011;41205;44.264;19.884;2024-01-15T05:08:53;92.45;;;57.65;;
55328;SDS011;41205;44.264;19.884;2024-01-15T05:11:19;23.98;;;14.80;;
55328;SDS011;41205;44.264;19.884;2024-01-15T05:13:45;22.23;;;17.77;;
55328;SDS011;41205;44.264;19.884;2024-01-15T05:16:11;13.38;;;9.35;;
55328;SDS011;41205;44.264;19.884;2024-01-15T05:18:36;19.40;;;10.70;;
55328;SDS011;41205;44.264;19.884;2024-01-15T05:21:02;63.45;;;31.40;;
55328;SDS011;41205;44.264;19.884;2024-01-15T05:23:30;27.88;;;16.73;;
55328;SDS011;41205;44.264;19.884;2024-01-15T05:25:56;50.55;;;24.35;;
55328;SDS011;41205;44.264;19.884;2024-01-15T05:28:22;72.88;;;44.15;;
55328;SDS011;41205;44.264;19.884;2024-01-15T05:30:48;125.55;;;71.95;;
55328;SDS011;41205;44.264;19.884;2024-01-15T05:33:15;104.55;;;48.85;;
55328;SDS011;41205;44.264;19.884;2024-01-15T05:35:41;92.43;;;56.75;;
55328;SDS011;41205;44.264;19.884;2024-01-15T05:38:07;153.80;;;95.80;;
55328;SDS011;41205;44.264;19.884;2024-01-15T05:40:33;162.32;;;91.85;;
55328;SDS011;41205;44.264;19.884;2024-01-15T05:42:59;106.38;;;63.53;;
55328;SDS011;41205;44.264;19.884;2024-01-15T05:45:26;111.45;;;65.00;;
55328;SDS011;41205;44.264;19.884;2024-01-15T05:47:52;63.85;;;40.38;;
55328;SDS011;41205;44.264;19.884;2024-01-15T05:50:17;66.72;;;39.60;;
55328;SDS011;41205;44.264;19.884;2024-01-15T05:52:43;90.10;;;54.50;;
55328;SDS011;41205;44.264;19.884;2024-01-15T05:55:09;100.50;;;59.30;;
55328;SDS011;41205;44.264;19.884;2024-01-15T05:57:35;99.15;;;61.28;;
55328;SDS011;41205;44.264;19.884;2024-01-15T06:00:01;95.95;;;58.63;;
55328;SDS011;41205;44.264;19.884;2024-01-15T06:02:28;77.70;;;49.28;;
55328;SDS011;41205;44.264;19.884;2024-01-15T06:04:54;102.88;;;73.07;;
55328;SDS011;41205;44.264;19.884;2024-01-15T06:07:22;133.30;;;73.50;;
55328;SDS011;41205;44.264;19.884;2024-01-15T06:09:48;111.68;;;67.82;;
55328;SDS011;41205;44.264;19.884;2024-01-15T06:12:14;136.57;;;81.72;;
55328;SDS011;41205;44.264;19.884;2024-01-15T06:14:40;78.25;;;47.78;;
55328;SDS011;41205;44.264;19.884;2024-01-15T06:17:07;98.40;;;58.70;;
55328;SDS011;41205;44.264;19.884;2024-01-15T06:19:33;87.05;;;54.17;;
55328;SDS011;41205;44.264;19.884;2024-01-15T06:21:59;82.22;;;50.08;;
55328;SDS011;41205;44.264;19.884;2024-01-15T06:24:25;96.45;;;58.20;;
55328;SDS011;41205;44.264;19.884;2024-01-15T06:26:50;131.10;;;81.63;;
55328;SDS011;41205;44.264;19.884;2024-01-15T06:29:16;138.82;;;83.28;;
55328;SDS011;41205;44.264;19.884;2024-01-15T06:31:42;120.20;;;71.03;;
55328;SDS011;41205;44.264;19.884;2024-01-15T06:34:08;131.63;;;74.95;;
55328;SDS011;41205;44.264;19.884;2024-01-15T06:36:33;120.70;;;71.00;;
55328;SDS011;41205;44.264;19.884;2024-01-15T06:38:59;95.63;;;61.08;;
55328;SDS011;41205;44.264;19.884;2024-01-15T06:41:25;464.17;;;293.20;;
55328;SDS011;41205;44.264;19.884;2024-01-15T06:43:51;226.60;;;137.05;;
55328;SDS011;41205;44.264;19.884;2024-01-15T06:46:20;235.40;;;148.88;;
55328;SDS011;41205;44.264;19.884;2024-01-15T06:48:46;205.43;;;126.32;;
55328;SDS011;41205;44.264;19.884;2024-01-15T06:51:12;174.20;;;112.45;;
55328;SDS011;41205;44.264;19.884;2024-01-15T06:53:38;157.52;;;96.38;;
55328;SDS011;41205;44.264;19.884;2024-01-15T06:56:04;151.88;;;84.13;;
55328;SDS011;41205;44.264;19.884;2024-01-15T06:58:33;128.82;;;70.22;;
55328;SDS011;41205;44.264;19.884;2024-01-15T07:00:58;127.53;;;71.32;;
55328;SDS011;41205;44.264;19.884;2024-01-15T07:03:24;406.85;;;261.77;;
55328;SDS011;41205;44.264;19.884;2024-01-15T07:05:50;418.13;;;255.05;;
55328;SDS011;41205;44.264;19.884;2024-01-15T07:08:16;325.30;;;203.32;;
55328;SDS011;41205;44.264;19.884;2024-01-15T07:10:42;166.77;;;102.75;;
55328;SDS011;41205;44.264;19.884;2024-01-15T07:13:08;245.05;;;155.60;;
55328;SDS011;41205;44.264;19.884;2024-01-15T07:15:34;172.27;;;107.35;;
55328;SDS011;41205;44.264;19.884;2024-01-15T07:17:59;209.73;;;125.30;;
55328;SDS011;41205;44.264;19.884;2024-01-15T07:20:25;502.25;;;304.45;;
55328;SDS011;41205;44.264;19.884;2024-01-15T07:22:51;430.55;;;260.52;;
55328;SDS011;41205;44.264;19.884;2024-01-15T07:25:17;345.50;;;211.32;;
55328;SDS011;41205;44.264;19.884;2024-01-15T07:27:43;283.58;;;175.70;;
55328;SDS011;41205;44.264;19.884;2024-01-15T07:30:10;189.25;;;121.97;;
55328;SDS011;41205;44.264;19.884;2024-01-15T07:32:37;200.02;;;137.27;;
55328;SDS011;41205;44.264;19.884;2024-01-15T07:35:03;184.57;;;130.32;;
55328;SDS011;41205;44.264;19.884;2024-01-15T07:37:29;82.40;;;53.53;;
55328;SDS011;41205;44.264;19.884;2024-01-15T07:39:55;87.28;;;56.13;;
55328;SDS011;41205;44.264;19.884;2024-01-15T07:42:21;79.82;;;57.25;;
55328;SDS011;41205;44.264;19.884;2024-01-15T07:44:46;82.00;;;53.10;;
55328;SDS011;41205;44.264;19.884;2024-01-15T07:47:12;271.58;;;183.85;;
55328;SDS011;41205;44.264;19.884;2024-01-15T07:49:38;248.65;;;165.80;;
55328;SDS011;41205;44.264;19.884;2024-01-15T07:52:04;284.13;;;161.07;;
55328;SDS011;41205;44.264;19.884;2024-01-15T07:54:30;411.25;;;280.73;;
55328;SDS011;41205;44.264;19.884;2024-01-15T07:56:57;349.88;;;226.93;;
55328;SDS011;41205;44.264;19.884;2024-01-15T07:59:30;322.95;;;206.35;;
55328;SDS011;41205;44.264;19.884;2024-01-15T08:01:56;297.10;;;185.50;;
55328;SDS011;41205;44.264;19.884;2024-01-15T08:04:23;432.95;;;273.98;;
55328;SDS011;41205;44.264;19.884;2024-01-15T08:06:49;336.40;;;226.40;;
55328;SDS011;41205;44.264;19.884;2024-01-15T08:09:15;232.65;;;149.88;;
55328;SDS011;41205;44.264;19.884;2024-01-15T08:11:41;194.25;;;134.20;;
55328;SDS011;41205;44.264;19.884;2024-01-15T08:14:07;371.65;;;265.40;;
55328;SDS011;41205;44.264;19.884;2024-01-15T08:16:33;225.00;;;161.13;;
55328;SDS011;41205;44.264;19.884;2024-01-15T08:18:59;329.58;;;227.65;;
55328;SDS011;41205;44.264;19.884;2024-01-15T08:21:25;352.42;;;248.30;;
55328;SDS011;41205;44.264;19.884;2024-01-15T08:23:52;268.17;;;191.93;;
55328;SDS011;41205;44.264;19.884;2024-01-15T08:26:18;199.65;;;144.63;;
55328;SDS011;41205;44.264;19.884;2024-01-15T08:28:43;295.30;;;215.00;;
55328;SDS011;41205;44.264;19.884;2024-01-15T08:31:09;344.95;;;231.05;;
55328;SDS011;41205;44.264;19.884;2024-01-15T08:33:35;282.02;;;188.07;;
55328;SDS011;41205;44.264;19.884;2024-01-15T08:36:01;198.65;;;126.13;;
55328;SDS011;41205;44.264;19.884;2024-01-15T08:38:27;206.20;;;133.57;;
55328;SDS011;41205;44.264;19.884;2024-01-15T08:40:53;188.75;;;129.45;;
55328;SDS011;41205;44.264;19.884;2024-01-15T08:43:21;171.60;;;119.22;;
55328;SDS011;41205;44.264;19.884;2024-01-15T08:45:47;176.45;;;123.57;;
55328;SDS011;41205;44.264;19.884;2024-01-15T08:48:13;189.75;;;132.18;;
55328;SDS011;41205;44.264;19.884;2024-01-15T08:50:39;123.53;;;85.53;;
55328;SDS011;41205;44.264;19.884;2024-01-15T08:53:04;112.78;;;80.45;;
55328;SDS011;41205;44.264;19.884;2024-01-15T08:55:30;91.82;;;67.35;;
55328;SDS011;41205;44.264;19.884;2024-01-15T08:57:56;118.72;;;75.78;;
55328;SDS011;41205;44.264;19.884;2024-01-15T09:00:22;116.82;;;84.47;;
55328;SDS011;41205;44.264;19.884;2024-01-15T09:02:48;168.80;;;112.88;;
55328;SDS011;41205;44.264;19.884;2024-01-15T09:05:13;360.73;;;249.15;;
55328;SDS011;41205;44.264;19.884;2024-01-15T09:07:39;223.88;;;158.45;;
55328;SDS011;41205;44.264;19.884;2024-01-15T09:10:05;437.10;;;270.80;;
55328;SDS011;41205;44.264;19.884;2024-01-15T09:12:31;496.90;;;305.05;;
55328;SDS011;41205;44.264;19.884;2024-01-15T09:14:57;250.27;;;166.70;;
55328;SDS011;41205;44.264;19.884;2024-01-15T09:17:23;563.65;;;425.55;;
55328;SDS011;41205;44.264;19.884;2024-01-15T09:19:49;498.25;;;367.05;;
55328;SDS011;41205;44.264;19.884;2024-01-15T09:22:15;484.92;;;359.15;;
55328;SDS011;41205;44.264;19.884;2024-01-15T09:24:46;525.15;;;410.65;;
55328;SDS011;41205;44.264;19.884;2024-01-15T09:27:12;520.13;;;398.90;;
55328;SDS011;41205;44.264;19.884;2024-01-15T09:29:38;460.70;;;332.35;;
55328;SDS011;41205;44.264;19.884;2024-01-15T09:32:07;425.85;;;303.33;;
55328;SDS011;41205;44.264;19.884;2024-01-15T09:34:35;155.27;;;112.90;;
55328;SDS011;41205;44.264;19.884;2024-01-15T09:37:01;84.80;;;60.08;;
55328;SDS011;41205;44.264;19.884;2024-01-15T09:39:27;84.80;;;61.17;;
55328;SDS011;41205;44.264;19.884;2024-01-15T09:41:53;98.25;;;68.28;;
55328;SDS011;41205;44.264;19.884;2024-01-15T09:44:20;136.20;;;92.75;;
55328;SDS011;41205;44.264;19.884;2024-01-15T09:46:46;96.85;;;65.28;;
55328;SDS011;41205;44.264;19.884;2024-01-15T09:49:15;218.77;;;152.52;;
55328;SDS011;41205;44.264;19.884;2024-01-15T09:51:41;183.73;;;132.00;;
55328;SDS011;41205;44.264;19.884;2024-01-15T09:54:08;167.48;;;116.63;;
55328;SDS011;41205;44.264;19.884;2024-01-15T09:56:34;134.00;;;94.05;;
55328;SDS011;41205;44.264;19.884;2024-01-15T09:59:00;151.43;;;107.60;;
55328;SDS011;41205;44.264;19.884;2024-01-15T10:01:27;209.48;;;140.68;;
55328;SDS011;41205;44.264;19.884;2024-01-15T10:03:54;202.63;;;131.95;;
55328;SDS011;41205;44.264;19.884;2024-01-15T10:06:21;499.98;;;371.17;;
55328;SDS011;41205;44.264;19.884;2024-01-15T10:08:49;460.92;;;296.45;;
55328;SDS011;41205;44.264;19.884;2024-01-15T10:11:16;175.02;;;120.55;;
55328;SDS011;41205;44.264;19.884;2024-01-15T10:13:43;352.73;;;246.20;;
55328;SDS011;41205;44.264;19.884;2024-01-15T10:16:08;332.92;;;233.93;;
55328;SDS011;41205;44.264;19.884;2024-01-15T10:18:34;410.48;;;288.60;;
55328;SDS011;41205;44.264;19.884;2024-01-15T10:21:02;377.77;;;269.17;;
55328;SDS011;41205;44.264;19.884;2024-01-15T10:23:29;442.55;;;324.02;;
55328;SDS011;41205;44.264;19.884;2024-01-15T10:25:57;222.82;;;163.85;;
55328;SDS011;41205;44.264;19.884;2024-01-15T10:28:23;253.63;;;183.35;;
55328;SDS011;41205;44.264;19.884;2024-01-15T10:30:52;207.40;;;136.10;;
55328;SDS011;41205;44.264;19.884;2024-01-15T10:33:24;194.88;;;137.90;;
55328;SDS011;41205;44.264;19.884;2024-01-15T10:35:57;250.02;;;173.23;;
55328;SDS011;41205;44.264;19.884;2024-01-15T10:38:24;141.40;;;99.03;;
55328;SDS011;41205;44.264;19.884;2024-01-15T10:40:54;131.55;;;94.18;;
55328;SDS011;41205;44.264;19.884;2024-01-15T10:43:21;161.63;;;96.95;;
55328;SDS011;41205;44.264;19.884;2024-01-15T10:45:47;193.38;;;117.55;;
55328;SDS011;41205;44.264;19.884;2024-01-15T10:48:16;140.80;;;89.70;;
55328;SDS011;41205;44.264;19.884;2024-01-15T10:50:46;186.07;;;134.55;;
55328;SDS011;41205;44.264;19.884;2024-01-15T10:53:14;167.50;;;113.18;;
55328;SDS011;41205;44.264;19.884;2024-01-15T10:55:41;90.50;;;62.83;;
55328;SDS011;41205;44.264;19.884;2024-01-15T10:58:08;215.18;;;144.45;;
55328;SDS011;41205;44.264;19.884;2024-01-15T11:00:37;146.13;;;100.97;;
55328;SDS011;41205;44.264;19.884;2024-01-15T11:03:04;142.65;;;95.50;;
55328;SDS011;41205;44.264;19.884;2024-01-15T11:05:36;113.80;;;79.78;;
55328;SDS011;41205;44.264;19.884;2024-01-15T11:08:06;162.07;;;110.10;;
55328;SDS011;41205;44.264;19.884;2024-01-15T11:10:42;201.98;;;144.35;;
55328;SDS011;41205;44.264;19.884;2024-01-15T11:13:21;245.15;;;170.48;;
55328;SDS011;41205;44.264;19.884;2024-01-15T11:15:57;365.08;;;236.80;;
55328;SDS011;41205;44.264;19.884;2024-01-15T11:18:23;306.23;;;186.93;;
55328;SDS011;41205;44.264;19.884;2024-01-15T11:23:44;235.00;;;150.23;;
55328;SDS011;41205;44.264;19.884;2024-01-15T11:29:07;432.38;;;274.05;;
55328;SDS011;41205;44.264;19.884;2024-01-15T11:34:06;319.17;;;221.90;;
55328;SDS011;41205;44.264;19.884;2024-01-15T11:41:59;262.67;;;182.77;;
55328;SDS011;41205;44.264;19.884;2024-01-15T11:44:26;291.63;;;222.13;;
55328;SDS011;41205;44.264;19.884;2024-01-15T11:47:02;297.63;;;208.52;;
55328;SDS011;41205;44.264;19.884;2024-01-15T11:52:19;355.00;;;255.68;;
55328;SDS011;41205;44.264;19.884;2024-01-15T11:54:49;374.23;;;273.05;;
55328;SDS011;41205;44.264;19.884;2024-01-15T11:57:28;444.08;;;324.63;;
55328;SDS011;41205;44.264;19.884;2024-01-15T12:00:08;428.40;;;312.73;;
55328;SDS011;41205;44.264;19.884;2024-01-15T12:02:35;515.47;;;392.67;;
55328;SDS011;41205;44.264;19.884;2024-01-15T12:05:01;552.78;;;440.83;;
55328;SDS011;41205;44.264;19.884;2024-01-15T12:07:28;560.88;;;438.48;;
55328;SDS011;41205;44.264;19.884;2024-01-15T12:09:54;533.85;;;414.23;;
55328;SDS011;41205;44.264;19.884;2024-01-15T12:12:47;521.88;;;406.83;;
55328;SDS011;41205;44.264;19.884;2024-01-15T12:15:11;503.85;;;381.40;;
55328;SDS011;41205;44.264;19.884;2024-01-15T12:17:37;428.88;;;314.02;;
55328;SDS011;41205;44.264;19.884;2024-01-15T12:20:06;419.10;;;297.77;;
55328;SDS011;41205;44.264;19.884;2024-01-15T12:22:32;490.73;;;352.38;;
55328;SDS011;41205;44.264;19.884;2024-01-15T12:24:58;410.23;;;295.23;;
55328;SDS011;41205;44.264;19.884;2024-01-15T12:27:24;348.55;;;267.95;;
55328;SDS011;41205;44.264;19.884;2024-01-15T12:29:52;277.35;;;206.60;;
55328;SDS011;41205;44.264;19.884;2024-01-15T12:32:18;258.88;;;189.65;;
55328;SDS011;41205;44.264;19.884;2024-01-15T12:34:44;314.23;;;218.30;;
55328;SDS011;41205;44.264;19.884;2024-01-15T12:37:10;210.40;;;151.45;;
55328;SDS011;41205;44.264;19.884;2024-01-15T12:39:37;193.15;;;137.77;;
55328;SDS011;41205;44.264;19.884;2024-01-15T12:42:03;267.27;;;207.52;;
55328;SDS011;41205;44.264;19.884;2024-01-15T12:44:30;217.18;;;167.02;;
55328;SDS011;41205;44.264;19.884;2024-01-15T12:46:56;232.48;;;168.98;;
55328;SDS011;41205;44.264;19.884;2024-01-15T12:49:23;380.08;;;290.73;;
55328;SDS011;41205;44.264;19.884;2024-01-15T12:51:52;384.25;;;283.95;;
55328;SDS011;41205;44.264;19.884;2024-01-15T12:54:19;404.48;;;312.15;;
55328;SDS011;41205;44.264;19.884;2024-01-15T12:56:45;441.65;;;317.25;;
55328;SDS011;41205;44.264;19.884;2024-01-15T12:59:11;542.22;;;423.30;;
55328;SDS011;41205;44.264;19.884;2024-01-15T13:01:37;393.42;;;294.83;;
55328;SDS011;41205;44.264;19.884;2024-01-15T13:04:03;449.33;;;339.48;;
55328;SDS011;41205;44.264;19.884;2024-01-15T13:06:28;412.73;;;310.08;;
55328;SDS011;41205;44.264;19.884;2024-01-15T13:08:54;400.75;;;299.40;;
55328;SDS011;41205;44.264;19.884;2024-01-15T13:11:20;411.15;;;317.33;;
55328;SDS011;41205;44.264;19.884;2024-01-15T13:13:46;410.95;;;312.88;;
55328;SDS011;41205;44.264;19.884;2024-01-15T13:16:12;481.10;;;374.00;;
55328;SDS011;41205;44.264;19.884;2024-01-15T13:18:38;489.13;;;382.60;;
55328;SDS011;41205;44.264;19.884;2024-01-15T13:21:04;483.88;;;376.15;;
55328;SDS011;41205;44.264;19.884;2024-01-15T13:23:29;499.60;;;383.60;;
55328;SDS011;41205;44.264;19.884;2024-01-15T13:25:55;498.40;;;390.02;;
55328;SDS011;41205;44.264;19.884;2024-01-15T13:28:21;476.95;;;370.90;;
55328;SDS011;41205;44.264;19.884;2024-01-15T13:30:47;500.48;;;395.73;;
55328;SDS011;41205;44.264;19.884;2024-01-15T13:33:12;446.48;;;335.55;;
55328;SDS011;41205;44.264;19.884;2024-01-15T13:35:38;534.28;;;425.52;;
55328;SDS011;41205;44.264;19.884;2024-01-15T13:38:04;523.60;;;416.05;;
55328;SDS011;41205;44.264;19.884;2024-01-15T13:40:30;437.92;;;339.27;;
55328;SDS011;41205;44.264;19.884;2024-01-15T13:42:55;349.30;;;270.05;;
55328;SDS011;41205;44.264;19.884;2024-01-15T13:45:21;337.80;;;254.70;;
55328;SDS011;41205;44.264;19.884;2024-01-15T13:47:49;372.73;;;290.50;;
55328;SDS011;41205;44.264;19.884;2024-01-15T13:50:14;368.00;;;273.77;;
55328;SDS011;41205;44.264;19.884;2024-01-15T13:52:40;302.83;;;227.23;;
55328;SDS011;41205;44.264;19.884;2024-01-15T13:55:06;298.55;;;221.82;;
55328;SDS011;41205;44.264;19.884;2024-01-15T13:57:34;334.85;;;265.00;;
55328;SDS011;41205;44.264;19.884;2024-01-15T13:59:59;339.23;;;260.75;;
55328;SDS011;41205;44.264;19.884;2024-01-15T14:02:25;404.17;;;304.50;;
55328;SDS011;41205;44.264;19.884;2024-01-15T14:04:51;336.80;;;257.33;;
55328;SDS011;41205;44.264;19.884;2024-01-15T14:07:17;364.35;;;269.75;;
55328;SDS011;41205;44.264;19.884;2024-01-15T14:09:42;301.70;;;237.95;;